createdAt,value
2018-12-04T00:02:20.465Z,1.90
2018-12-04T00:04:47.950Z,1.80
2018-12-04T00:07:15.430Z,1.97
2018-12-04T00:09:42.921Z,1.90
2018-12-04T00:12:10.414Z,2.07
2018-12-04T00:14:37.897Z,2.30
2018-12-04T00:17:05.386Z,1.97
2018-12-04T00:19:32.897Z,1.77
2018-12-04T00:22:00.390Z,3.37
2018-12-04T00:24:27.881Z,3.30
2018-12-04T00:26:55.360Z,2.40
2018-12-04T00:29:22.846Z,2.30
2018-12-04T00:31:50.404Z,3.57
2018-12-04T00:34:17.898Z,3.30
2018-12-04T00:36:45.376Z,4.77
2018-12-04T00:39:12.888Z,4.63
2018-12-04T00:41:40.418Z,2.80
2018-12-04T00:44:07.986Z,4.63
2018-12-04T00:46:35.473Z,6.93
2018-12-04T00:49:02.970Z,3.40
2018-12-04T00:51:30.453Z,3.60
2018-12-04T00:53:57.936Z,4.73
2018-12-04T00:56:25.453Z,2.90
2018-12-04T00:58:52.935Z,2.67
2018-12-04T01:01:20.422Z,3.63
2018-12-04T01:03:47.912Z,4.07
2018-12-04T01:06:15.392Z,6.17
2018-12-04T01:08:42.877Z,6.23
2018-12-04T01:11:10.357Z,3.37
2018-12-04T01:13:37.836Z,3.40
2018-12-04T01:16:05.349Z,3.37
2018-12-04T01:18:32.844Z,5.63
2018-12-04T01:21:00.329Z,2.90
2018-12-04T01:23:27.827Z,4.03
2018-12-04T01:25:55.312Z,3.13
2018-12-04T01:28:22.800Z,3.70
2018-12-04T01:30:50.280Z,2.93
2018-12-04T01:33:17.761Z,4.13
2018-12-04T01:35:45.247Z,3.17
2018-12-04T01:38:12.724Z,2.47
2018-12-04T01:40:40.255Z,3.33
2018-12-04T01:43:07.736Z,4.47
2018-12-04T01:45:35.217Z,3.40
2018-12-04T01:48:02.709Z,2.90
2018-12-04T01:50:30.193Z,2.83
2018-12-04T01:52:57.677Z,3.40
2018-12-04T01:55:25.165Z,3.20
2018-12-04T01:57:52.681Z,5.60
2018-12-04T02:00:20.171Z,3.13
2018-12-04T02:02:47.655Z,2.17
2018-12-04T02:05:15.192Z,3.20
2018-12-04T02:07:42.678Z,3.40
2018-12-04T02:10:10.185Z,2.53
2018-12-04T02:12:37.669Z,5.00
2018-12-04T02:15:05.187Z,5.07
2018-12-04T02:17:32.714Z,3.63
2018-12-04T02:20:00.200Z,4.47
2018-12-04T02:22:27.698Z,5.87
2018-12-04T02:24:55.182Z,4.30
2018-12-04T02:27:22.679Z,4.93
2018-12-04T02:29:50.156Z,7.20
2018-12-04T02:32:17.662Z,3.60
2018-12-04T02:34:45.179Z,5.63
2018-12-04T02:37:12.678Z,4.07
2018-12-04T02:39:40.281Z,2.40
2018-12-04T02:42:07.768Z,4.30
2018-12-04T02:44:35.262Z,6.97
2018-12-04T02:47:02.750Z,3.80
2018-12-04T02:49:30.240Z,4.20
2018-12-04T02:51:57.749Z,4.17
2018-12-04T02:54:25.247Z,4.53
2018-12-04T02:56:52.754Z,3.70
2018-12-04T02:59:20.242Z,5.10
2018-12-04T03:01:47.741Z,3.07
2018-12-04T03:04:15.245Z,2.83
2018-12-04T03:06:42.741Z,5.40
2018-12-04T03:09:10.234Z,4.97
2018-12-04T03:11:37.735Z,4.47
2018-12-04T03:14:05.227Z,5.63
2018-12-04T03:16:32.709Z,5.30
2018-12-04T03:19:00.199Z,3.13
2018-12-04T03:21:27.693Z,3.60
2018-12-04T03:23:55.182Z,3.50
2018-12-04T03:26:22.669Z,5.50
2018-12-04T03:28:50.171Z,5.27
2018-12-04T03:31:17.663Z,5.50
2018-12-04T03:33:45.183Z,6.83
2018-12-04T03:36:12.673Z,5.90
2018-12-04T03:38:40.158Z,4.07
2018-12-04T03:41:07.819Z,4.03
2018-12-04T03:43:35.306Z,4.20
2018-12-04T03:46:02.822Z,6.77
2018-12-04T03:48:30.347Z,4.20
2018-12-04T03:50:57.933Z,4.20
2018-12-04T03:53:25.417Z,3.10
2018-12-04T03:55:52.905Z,3.60
2018-12-04T03:58:20.385Z,5.27
2018-12-04T04:00:47.932Z,4.43
2018-12-04T04:03:15.462Z,3.37
2018-12-04T04:05:42.981Z,4.10
2018-12-04T04:08:11.110Z,4.83
2018-12-04T04:10:38.603Z,7.40
2018-12-04T04:13:06.090Z,7.63
2018-12-04T04:15:33.570Z,8.50
2018-12-04T04:18:01.121Z,2.77
2018-12-04T04:20:28.669Z,4.03
2018-12-04T04:22:56.351Z,5.30
2018-12-04T04:25:24.121Z,4.70
2018-12-04T04:27:51.806Z,6.90
2018-12-04T04:30:19.388Z,4.53
2018-12-04T04:32:47.066Z,4.83
2018-12-04T04:35:14.801Z,2.60
2018-12-04T04:37:42.522Z,4.33
2018-12-04T04:40:10.115Z,6.90
2018-12-04T04:42:37.640Z,5.20
2018-12-04T04:45:05.507Z,4.47
2018-12-04T04:47:33.221Z,4.67
2018-12-04T04:50:00.775Z,7.17
2018-12-04T04:52:28.382Z,4.07
2018-12-04T04:54:56.050Z,5.90
2018-12-04T04:57:23.768Z,4.07
2018-12-04T04:59:51.369Z,4.13
2018-12-04T05:02:18.989Z,4.50
2018-12-04T05:04:46.517Z,9.13
2018-12-04T05:07:14.100Z,2.80
2018-12-04T05:09:41.662Z,6.43
2018-12-04T05:12:09.211Z,5.87
2018-12-04T05:14:36.764Z,3.83
2018-12-04T05:17:04.348Z,6.37
2018-12-04T05:19:31.906Z,5.47
2018-12-04T05:21:59.454Z,7.70
2018-12-04T05:24:27.018Z,5.63
2018-12-04T05:26:54.564Z,3.17
2018-12-04T05:29:22.129Z,4.53
2018-12-04T05:31:49.647Z,6.40
2018-12-04T05:34:17.181Z,5.67
2018-12-04T05:36:44.773Z,7.63
2018-12-04T05:39:12.359Z,7.33
2018-12-04T05:41:39.862Z,7.47
2018-12-04T05:44:07.397Z,4.30
2018-12-04T05:46:34.935Z,4.43
2018-12-04T05:49:02.466Z,6.80
2018-12-04T05:51:30.007Z,6.33
2018-12-04T05:53:57.546Z,5.63
2018-12-04T05:56:25.075Z,5.63
2018-12-04T05:58:52.631Z,7.03
2018-12-04T06:01:20.144Z,5.87
2018-12-04T06:03:47.678Z,5.80
2018-12-04T06:06:15.187Z,4.07
2018-12-04T06:08:42.759Z,4.77
2018-12-04T06:11:10.339Z,5.83
2018-12-04T06:13:37.855Z,8.30
2018-12-04T06:16:05.406Z,3.33
2018-12-04T06:18:32.945Z,6.73
2018-12-04T06:21:00.468Z,3.73
2018-12-04T06:23:28.056Z,5.07
2018-12-04T06:25:55.602Z,5.60
2018-12-04T06:28:23.128Z,8.63
2018-12-04T06:30:50.653Z,4.07
2018-12-04T06:33:18.145Z,8.23
2018-12-04T06:35:45.629Z,6.93
2018-12-04T06:38:13.109Z,5.40
2018-12-04T06:40:40.614Z,5.37
2018-12-04T06:43:08.096Z,5.97
2018-12-04T06:45:35.581Z,7.40
2018-12-04T06:48:03.056Z,3.33
2018-12-04T06:50:30.531Z,5.80
2018-12-04T06:52:58.034Z,3.70
2018-12-04T06:55:25.534Z,5.70
2018-12-04T06:57:56.652Z,11.40
2018-12-04T07:00:24.154Z,17.87
2018-12-04T07:02:51.641Z,16.70
2018-12-04T07:05:19.116Z,16.70
2018-12-04T07:07:46.599Z,30.57
2018-12-04T07:10:14.118Z,25.23
2018-12-04T07:12:41.601Z,17.67
2018-12-04T07:15:09.093Z,14.17
2018-12-04T07:17:36.578Z,7.07
2018-12-04T07:20:05.234Z,8.43
2018-12-04T07:22:32.749Z,9.67
2018-12-04T07:25:00.234Z,3.40
2018-12-04T07:27:27.710Z,3.17
2018-12-04T07:29:55.196Z,5.63
2018-12-04T07:32:22.695Z,5.13
2018-12-04T07:34:50.254Z,4.63
2018-12-04T07:37:17.744Z,6.07
2018-12-04T07:39:45.242Z,8.13
2018-12-04T07:42:12.736Z,10.80
2018-12-04T07:44:40.225Z,5.53
2018-12-04T07:47:07.859Z,6.83
2018-12-04T07:49:35.345Z,6.10
2018-12-04T07:52:02.846Z,6.33
2018-12-04T07:54:30.333Z,4.50
2018-12-04T07:56:57.809Z,4.60
2018-12-04T07:59:25.314Z,6.67
2018-12-04T08:01:52.810Z,3.77
2018-12-04T08:04:20.307Z,6.93
2018-12-04T08:06:47.817Z,4.33
2018-12-04T08:09:15.334Z,5.33
2018-12-04T08:11:42.826Z,6.50
2018-12-04T08:14:10.328Z,7.70
2018-12-04T08:16:37.823Z,4.47
2018-12-04T08:19:05.303Z,3.33
2018-12-04T08:21:32.802Z,10.03
2018-12-04T08:24:00.307Z,16.37
2018-12-04T08:26:27.802Z,15.80
2018-12-04T08:28:55.326Z,8.00
2018-12-04T08:31:22.845Z,6.03
2018-12-04T08:33:50.445Z,4.87
2018-12-04T08:36:18.185Z,8.63
2018-12-04T08:38:45.719Z,8.80
2018-12-04T08:41:13.265Z,3.80
2018-12-04T08:43:40.819Z,6.77
2018-12-04T08:46:08.376Z,5.67
2018-12-04T08:48:35.920Z,8.43
2018-12-04T08:51:03.429Z,6.60
2018-12-04T08:53:31.032Z,6.43
2018-12-04T08:55:58.625Z,5.33
2018-12-04T08:58:26.164Z,7.33
2018-12-04T09:00:53.710Z,6.67
2018-12-04T09:03:21.271Z,9.97
2018-12-04T09:05:48.785Z,6.83
2018-12-04T09:08:16.381Z,9.07
2018-12-04T09:10:44.051Z,5.83
2018-12-04T09:13:11.626Z,5.70
2018-12-04T09:15:39.165Z,4.77
2018-12-04T09:18:06.700Z,5.97
2018-12-04T09:20:34.391Z,7.50
2018-12-04T09:23:02.078Z,4.63
2018-12-04T09:25:29.752Z,3.67
2018-12-04T09:27:57.396Z,8.03
2018-12-04T09:30:25.042Z,5.87
2018-12-04T09:32:52.583Z,5.27
2018-12-04T09:35:20.170Z,4.83
2018-12-04T09:37:47.752Z,4.97
2018-12-04T09:40:15.299Z,7.03
2018-12-04T09:42:42.849Z,5.63
2018-12-04T09:45:10.382Z,7.70
2018-12-04T09:47:37.924Z,5.93
2018-12-04T09:50:06.264Z,6.33
2018-12-04T09:52:33.819Z,4.73
2018-12-04T09:55:01.436Z,4.53
2018-12-04T09:57:29.077Z,4.43
2018-12-04T09:59:56.635Z,5.63
2018-12-04T10:02:24.203Z,5.83
2018-12-04T10:04:51.762Z,5.60
2018-12-04T10:07:19.317Z,5.17
2018-12-04T10:09:46.886Z,4.87
2018-12-04T10:12:14.450Z,3.90
2018-12-04T10:14:41.996Z,4.13
2018-12-04T10:17:09.580Z,4.03
2018-12-04T10:19:37.130Z,3.23
2018-12-04T10:22:04.717Z,4.50
2018-12-04T10:24:32.249Z,5.13
2018-12-04T10:26:59.829Z,2.70
2018-12-04T10:29:27.361Z,3.03
2018-12-04T10:31:56.150Z,2.80
2018-12-04T10:34:23.981Z,3.87
2018-12-04T10:36:51.552Z,2.63
2018-12-04T10:39:19.084Z,3.30
2018-12-04T10:41:46.618Z,2.97
2018-12-04T10:44:14.188Z,2.40
2018-12-04T10:46:41.756Z,4.80
2018-12-04T10:49:09.332Z,5.27
2018-12-04T10:51:36.916Z,5.73
2018-12-04T10:54:04.444Z,2.93
2018-12-04T10:56:31.994Z,3.17
2018-12-04T10:58:59.545Z,3.20
2018-12-04T11:04:30.951Z,4.77
2018-12-04T11:06:58.593Z,3.80
2018-12-04T11:09:26.170Z,2.17
2018-12-04T11:11:53.719Z,2.23
2018-12-04T11:14:21.265Z,3.23
2018-12-04T11:16:48.835Z,1.80
2018-12-04T11:19:16.435Z,1.97
2018-12-04T11:21:44.022Z,1.70
2018-12-04T11:24:11.595Z,2.00
2018-12-04T11:26:39.150Z,1.90
2018-12-04T11:29:06.670Z,2.13
2018-12-04T11:31:34.270Z,2.00
2018-12-04T11:34:01.828Z,5.20
2018-12-04T11:36:29.381Z,3.27
2018-12-04T11:38:56.927Z,3.73
2018-12-04T11:41:24.526Z,3.70
2018-12-04T11:43:52.120Z,4.30
2018-12-04T11:46:19.712Z,8.77
2018-12-04T11:48:47.240Z,9.97
2018-12-04T11:51:14.826Z,5.03
2018-12-04T11:53:42.375Z,4.37
2018-12-04T11:56:09.918Z,3.63
2018-12-04T11:58:37.511Z,4.60
2018-12-04T12:01:05.104Z,2.97
2018-12-04T12:03:32.651Z,3.40
2018-12-04T12:06:00.177Z,3.43
2018-12-04T12:08:27.779Z,5.57
2018-12-04T12:10:55.325Z,6.50
2018-12-04T12:13:22.888Z,4.90
2018-12-04T12:15:50.473Z,4.60
2018-12-04T12:18:18.044Z,3.30
2018-12-04T12:20:45.643Z,2.63
2018-12-04T12:23:13.234Z,2.53
2018-12-04T12:25:40.824Z,2.27
2018-12-04T12:28:08.390Z,3.53
2018-12-04T12:30:35.946Z,2.57
2018-12-04T12:33:03.504Z,2.53
2018-12-04T12:35:31.066Z,3.03
2018-12-04T12:37:58.716Z,3.43
2018-12-04T12:40:26.469Z,2.77
2018-12-04T12:42:54.153Z,3.07
2018-12-04T12:45:21.877Z,6.80
2018-12-04T12:47:49.483Z,3.33
2018-12-04T12:50:17.077Z,2.60
2018-12-04T12:52:44.636Z,2.60
2018-12-04T12:55:12.190Z,2.60
2018-12-04T12:57:39.790Z,3.30
2018-12-04T13:00:08.394Z,4.30
2018-12-04T13:02:35.944Z,3.97
2018-12-04T13:05:03.551Z,4.73
2018-12-04T13:07:31.098Z,4.77
2018-12-04T13:09:58.674Z,3.50
2018-12-04T13:12:26.276Z,4.13
2018-12-04T13:14:53.801Z,5.07
2018-12-04T13:17:21.434Z,2.80
2018-12-04T13:19:48.978Z,3.83
2018-12-04T13:22:16.514Z,3.00
2018-12-04T13:24:44.058Z,7.17
2018-12-04T13:27:11.653Z,3.77
2018-12-04T13:29:39.233Z,3.87
2018-12-04T13:32:06.786Z,3.53
2018-12-04T13:34:34.361Z,5.07
2018-12-04T13:37:01.905Z,3.20
2018-12-04T13:39:29.449Z,3.23
2018-12-04T13:41:57.018Z,3.33
2018-12-04T13:44:24.589Z,4.57
2018-12-04T13:46:52.189Z,3.83
2018-12-04T13:49:19.789Z,3.17
2018-12-04T13:51:47.402Z,5.43
2018-12-04T13:54:14.960Z,3.87
2018-12-04T13:56:42.591Z,3.37
2018-12-04T13:59:10.159Z,5.00
2018-12-04T14:01:37.795Z,4.57
2018-12-04T14:04:05.368Z,3.93
2018-12-04T14:06:32.990Z,7.57
2018-12-04T14:09:00.553Z,5.37
2018-12-04T14:11:28.128Z,5.27
2018-12-04T14:13:55.682Z,3.43
2018-12-04T14:16:23.249Z,5.13
2018-12-04T14:18:50.785Z,5.67
2018-12-04T14:21:18.448Z,6.67
2018-12-04T14:23:46.047Z,5.23
2018-12-04T14:26:13.625Z,6.47
2018-12-04T14:28:41.209Z,5.27
2018-12-04T14:31:08.792Z,6.83
2018-12-04T14:33:36.324Z,9.37
2018-12-04T14:36:03.911Z,2.63
2018-12-04T14:38:31.506Z,4.97
2018-12-04T14:40:59.207Z,4.77
2018-12-04T14:43:26.761Z,4.17
2018-12-04T14:45:54.455Z,3.23
2018-12-04T14:48:22.116Z,4.80
2018-12-04T14:50:49.780Z,8.47
2018-12-04T14:53:17.337Z,3.57
2018-12-04T14:55:44.899Z,4.07
2018-12-04T14:58:12.580Z,5.87
2018-12-04T15:00:40.134Z,7.70
2018-12-04T15:03:07.696Z,8.50
2018-12-04T15:05:35.277Z,6.30
2018-12-04T15:08:02.846Z,4.60
2018-12-04T15:10:30.381Z,7.10
2018-12-04T15:12:57.964Z,5.03
2018-12-04T15:15:25.587Z,8.90
2018-12-04T15:17:53.172Z,7.47
2018-12-04T15:20:20.730Z,7.37
2018-12-04T15:22:48.271Z,6.63
2018-12-04T15:25:15.950Z,5.10
2018-12-04T15:27:43.610Z,7.60
2018-12-04T15:30:11.322Z,6.03
2018-12-04T15:32:39.513Z,6.30
2018-12-04T15:35:07.091Z,7.10
2018-12-04T15:37:34.709Z,7.97
2018-12-04T15:40:02.444Z,7.53
2018-12-04T15:42:30.054Z,7.60
2018-12-04T15:44:57.681Z,6.60
2018-12-04T15:47:25.337Z,6.90
2018-12-04T15:49:52.874Z,11.83
2018-12-04T15:52:20.459Z,9.53
2018-12-04T15:54:48.303Z,9.23
2018-12-04T15:57:16.099Z,9.43
2018-12-04T15:59:43.896Z,9.10
2018-12-04T16:02:11.501Z,5.80
2018-12-04T16:04:39.049Z,11.77
2018-12-04T16:07:06.808Z,15.07
2018-12-04T16:09:34.520Z,6.33
2018-12-04T16:12:02.269Z,11.13
2018-12-04T16:14:29.861Z,6.43
2018-12-04T16:16:57.456Z,8.10
2018-12-04T16:19:25.170Z,14.20
2018-12-04T16:21:52.791Z,6.77
2018-12-04T16:24:20.355Z,7.70
2018-12-04T16:26:47.929Z,7.47
2018-12-04T16:29:15.628Z,11.23
2018-12-04T16:31:43.421Z,6.83
2018-12-04T16:34:10.940Z,9.03
2018-12-04T16:36:38.539Z,5.37
2018-12-04T16:39:06.674Z,7.27
2018-12-04T16:41:34.213Z,10.20
2018-12-04T16:44:01.799Z,11.47
2018-12-04T16:46:29.469Z,6.97
2018-12-04T16:48:57.048Z,9.50
2018-12-04T16:51:24.741Z,10.70
2018-12-04T16:53:52.303Z,14.53
2018-12-04T16:56:19.947Z,14.67
2018-12-04T16:58:47.523Z,9.43
2018-12-04T17:01:15.088Z,9.70
2018-12-04T17:03:42.663Z,11.73
2018-12-04T17:06:10.280Z,8.53
2018-12-04T17:08:37.832Z,9.37
2018-12-04T17:11:05.368Z,11.90
2018-12-04T17:13:32.960Z,10.50
2018-12-04T17:16:00.823Z,13.27
2018-12-04T17:18:28.395Z,13.07
2018-12-04T17:20:55.998Z,17.40
2018-12-04T17:23:23.691Z,16.07
2018-12-04T17:25:51.251Z,8.30
2018-12-04T17:28:18.806Z,13.43
2018-12-04T17:30:46.377Z,8.90
2018-12-04T17:33:14.125Z,9.47
2018-12-04T17:35:41.741Z,14.53
2018-12-04T17:38:09.296Z,8.27
2018-12-04T17:40:36.941Z,10.37
2018-12-04T17:43:04.830Z,7.50
2018-12-04T17:45:32.597Z,8.80
2018-12-04T17:48:00.323Z,10.03
2018-12-04T17:50:28.073Z,14.33
2018-12-04T17:52:55.659Z,12.07
2018-12-04T17:55:23.328Z,12.03
2018-12-04T17:57:50.874Z,13.13
2018-12-04T18:00:18.488Z,10.17
2018-12-04T18:02:46.083Z,14.67
2018-12-04T18:05:13.634Z,8.43
2018-12-04T18:07:41.196Z,12.53
2018-12-04T18:10:08.774Z,11.97
2018-12-04T18:12:36.349Z,13.70
2018-12-04T18:15:04.033Z,12.20
2018-12-04T18:17:31.557Z,12.87
2018-12-04T18:19:59.048Z,12.00
2018-12-04T18:22:26.569Z,11.77
2018-12-04T18:24:54.070Z,13.40
2018-12-04T18:27:21.577Z,10.57
2018-12-04T18:29:49.077Z,9.90
2018-12-04T18:32:16.577Z,11.67
2018-12-04T18:34:44.072Z,9.97
2018-12-04T18:37:11.575Z,13.30
2018-12-04T18:39:39.091Z,11.23
2018-12-04T18:42:06.587Z,12.77
2018-12-04T18:44:34.094Z,15.13
2018-12-04T18:47:01.686Z,12.97
2018-12-04T18:49:29.226Z,13.10
2018-12-04T18:51:56.801Z,11.97
2018-12-04T18:54:24.356Z,12.83
2018-12-04T18:56:51.923Z,14.93
2018-12-04T18:59:19.490Z,19.27
2018-12-04T19:01:47.044Z,21.30
2018-12-04T19:04:14.662Z,18.57
2018-12-04T19:06:42.253Z,22.67
2018-12-04T19:09:09.799Z,19.80
2018-12-04T19:11:38.845Z,20.53
2018-12-04T19:14:06.565Z,17.30
2018-12-04T19:16:34.145Z,20.33
2018-12-04T19:19:02.372Z,17.23
2018-12-04T19:21:29.958Z,19.87
2018-12-04T19:23:57.521Z,16.47
2018-12-04T19:26:25.089Z,30.30
2018-12-04T19:28:52.638Z,21.53
2018-12-04T19:31:20.260Z,37.83
2018-12-04T19:33:47.828Z,29.47
2018-12-04T19:36:15.424Z,23.10
2018-12-04T19:38:42.986Z,20.13
2018-12-04T19:41:10.556Z,18.40
2018-12-04T19:43:38.142Z,20.37
2018-12-04T19:46:06.658Z,13.70
2018-12-04T19:48:34.397Z,16.30
2018-12-04T19:51:02.100Z,16.53
2018-12-04T19:53:29.729Z,18.80
2018-12-04T19:55:57.256Z,17.43
2018-12-04T19:58:24.797Z,17.67
2018-12-04T20:00:52.312Z,20.17
2018-12-04T20:03:19.818Z,18.60
2018-12-04T20:05:47.363Z,16.27
2018-12-04T20:08:14.873Z,19.10
2018-12-04T20:10:42.394Z,23.77
2018-12-04T20:13:09.953Z,20.73
2018-12-04T20:15:37.500Z,19.90
2018-12-04T20:18:05.400Z,16.00
2018-12-04T20:20:33.041Z,15.93
2018-12-04T20:23:00.623Z,17.30
2018-12-04T20:25:28.286Z,23.30
2018-12-04T20:27:55.897Z,21.97
2018-12-04T20:30:23.647Z,17.37
2018-12-04T20:32:51.202Z,25.30
2018-12-04T20:35:19.011Z,24.43
2018-12-04T20:37:46.536Z,19.27
2018-12-04T20:40:14.143Z,21.33
2018-12-04T20:42:41.957Z,23.40
2018-12-04T20:45:12.154Z,24.80
2018-12-04T20:47:39.767Z,30.77
2018-12-04T20:50:07.346Z,30.20
2018-12-04T20:52:34.917Z,26.63
2018-12-04T20:55:08.763Z,24.67
2018-12-04T20:57:32.250Z,32.23
2018-12-04T20:59:59.829Z,27.37
2018-12-04T21:02:27.606Z,28.57
2018-12-04T21:04:55.213Z,28.67
2018-12-04T21:07:22.938Z,25.80
2018-12-04T21:09:50.441Z,24.60
2018-12-04T21:12:17.941Z,25.90
2018-12-04T21:14:45.441Z,29.07
2018-12-04T21:17:13.038Z,19.80
2018-12-04T21:19:40.738Z,20.70
2018-12-04T21:22:08.303Z,23.90
2018-12-04T21:24:36.786Z,22.63
2018-12-04T21:27:11.645Z,20.07
2018-12-04T21:29:41.274Z,17.37
2018-12-04T21:32:14.283Z,20.07
2018-12-04T21:34:48.443Z,18.87
2018-12-04T21:40:25.431Z,25.33
2018-12-04T21:42:58.508Z,27.60
2018-12-04T21:45:31.528Z,25.10
2018-12-04T21:48:01.093Z,27.40
2018-12-04T21:50:28.662Z,31.40
2018-12-04T21:52:57.745Z,29.73
2018-12-04T21:55:25.480Z,32.13
2018-12-04T21:57:53.040Z,38.83
2018-12-04T22:00:20.597Z,32.07
2018-12-04T22:02:48.175Z,32.27
2018-12-04T22:05:15.743Z,35.07
2018-12-04T22:07:43.363Z,29.80
2018-12-04T22:10:10.930Z,34.17
2018-12-04T22:12:38.530Z,37.07
2018-12-04T22:15:06.126Z,40.03
2018-12-04T22:17:33.688Z,38.87
2018-12-04T22:20:01.246Z,42.90
2018-12-04T22:22:28.858Z,32.03
2018-12-04T22:24:56.436Z,28.27
2018-12-04T22:27:24.013Z,32.30
2018-12-04T22:29:51.549Z,39.73
2018-12-04T22:32:19.053Z,32.83
2018-12-04T22:34:46.548Z,31.13
2018-12-04T22:37:14.050Z,29.10
2018-12-04T22:39:41.549Z,31.10
2018-12-04T22:42:09.062Z,29.60
2018-12-04T22:44:36.561Z,32.73
2018-12-04T22:47:04.055Z,30.57
2018-12-04T22:49:31.586Z,30.80
2018-12-04T22:51:59.093Z,27.60
2018-12-04T22:54:26.597Z,30.10
2018-12-04T22:56:54.109Z,32.33
2018-12-04T22:59:21.609Z,33.37
2018-12-04T23:01:49.110Z,33.17
2018-12-04T23:04:16.605Z,33.73
2018-12-04T23:06:44.144Z,31.73
2018-12-04T23:09:11.641Z,35.83
2018-12-04T23:11:39.139Z,33.67
2018-12-04T23:14:06.731Z,34.63
2018-12-04T23:16:34.242Z,37.37
2018-12-04T23:19:01.737Z,33.40
2018-12-04T23:21:29.239Z,32.47
2018-12-04T23:23:56.752Z,39.00
2018-12-04T23:26:24.263Z,31.07
2018-12-04T23:28:51.756Z,34.87
2018-12-04T23:31:19.262Z,31.20
2018-12-04T23:33:46.766Z,34.17
2018-12-04T23:36:14.296Z,32.83
2018-12-04T23:38:41.806Z,36.93
2018-12-04T23:41:09.302Z,37.53
2018-12-04T23:43:36.797Z,36.80
2018-12-04T23:46:04.290Z,30.70
2018-12-04T23:48:31.805Z,34.77
2018-12-04T23:50:59.313Z,24.53
2018-12-04T23:53:26.819Z,31.97
2018-12-04T23:55:54.320Z,29.53
2018-12-04T23:58:21.829Z,30.03
